Data for 10/16/2016

Time Sea-Level Adjusted Pressure Absolute Pressure Temperature Relative Humidity Dew Point   
(mb) (inHg) (mb) (inHg) (C) (F) (%) (C) (F)
00:05 1004 29.65 834 24.63 11.8 53.2 55 3.2 37.7
00:10 1004 29.65 833 24.6 11.4 52.5 56 3.1 37.5
00:15 1004 29.65 833 24.6 11.2 52.2 57 3.1 37.6
00:20 1004 29.65 833 24.6 11.1 52 57 3 37.5
00:25 1004 29.65 833 24.6 11.1 51.9 58 3.1 37.6
00:30 1004 29.65 833 24.6 11.2 52.1 56 2.9 37.2
00:35 1004 29.65 833 24.6 11.1 52 57 3.1 37.5
00:40 1004 29.65 833 24.6 10.9 51.6 58 3 37.3
00:45 1004 29.65 833 24.6 10.9 51.7 57 2.8 37.1
00:50 1004 29.65 833 24.6 11 51.9 56 2.7 36.8
00:55 1004 29.65 834 24.63 11.1 52.1 55 2.5 36.5
01:00 1005 29.68 834 24.63 11.4 52.5 57 3.2 37.7
01:05 1004 29.65 834 24.63 11.6 52.8 60 4.1 39.4
01:10 1004 29.65 833 24.6 11.2 52.2 66 5.1 41.1
01:15 1004 29.65 833 24.6 11.1 51.9 69 5.7 42.2
01:20 1003 29.62 833 24.6 10.7 51.2 69 5.2 41.4
01:25 1003 29.62 833 24.6 10.7 51.2 70 5.4 41.7
01:30 1003 29.62 833 24.6 10.5 50.9 71 5.4 41.7
01:35 1003 29.62 832 24.57 10.5 51 70 5.4 41.7
01:40 1003 29.62 832 24.57 10.5 50.8 64 4.1 39.3
01:45 1003 29.62 832 24.57 10.7 51.3 66 4.6 40.3
01:50 1003 29.62 832 24.57 10.4 50.6 67 4.6 40.3
01:55 1003 29.62 832 24.57 10.2 50.4 69 4.8 40.7
02:00 1003 29.62 832 24.57 10.2 50.3 69 4.8 40.6
02:05 1003 29.62 832 24.57 10.2 50.4 69 4.8 40.6
02:10 1003 29.62 832 24.57 10.3 50.6 68 4.7 40.4
02:15 1003 29.62 832 24.57 10.5 50.8 69 5 41.1
02:20 1002 29.59 832 24.57 10.3 50.6 67 4.4 39.9
02:25 1002 29.59 832 24.57 10.6 51 65 4.3 39.7
02:30 1002 29.59 832 24.57 10.7 51.3 62 3.8 38.8
02:35 1002 29.59 832 24.57 10.9 51.6 62 3.9 39.1
02:40 1002 29.59 831 24.54 11 51.7 63 4.1 39.5
02:45 1002 29.59 831 24.54 10.9 51.7 60 3.6 38.5
02:50 1002 29.59 831 24.54 11.1 52.1 60 3.7 38.7
02:55 1002 29.59 831 24.54 10.9 51.6 63 4.2 39.6
03:00 1002 29.59 831 24.54 10.6 51 63 3.9 39.1
03:05 1002 29.59 831 24.54 10.6 51.1 63 3.9 39
03:10 1002 29.59 831 24.54 10.5 50.9 64 4.1 39.4
03:15 1002 29.59 831 24.54 10.5 50.9 62 3.6 38.4
03:20 1002 29.59 831 24.54 10.9 51.6 61 3.7 38.7
03:25 1002 29.59 831 24.54 10.9 51.7 61 3.8 38.9
03:30 1002 29.59 831 24.54 10.7 51.3 63 4 39.2
03:35 1001 29.56 831 24.54 11.1 52 59 3.4 38.2
03:40 1001 29.56 831 24.54 11.4 52.6 55 2.7 36.9
03:45 1002 29.59 831 24.54 11.8 53.3 58 3.8 38.8
03:50 1003 29.62 832 24.57 11.3 52.4 67 5.5 41.9
03:55 1003 29.62 832 24.57 10 50 78 6.3 43.4
04:00 1003 29.62 833 24.6 8.8 47.9 84 6.4 43.4
04:05 1004 29.65 833 24.6 8.3 46.9 87 6.3 43.3
04:10 1004 29.65 833 24.6 8.2 46.8 85 5.8 42.5
04:15 1004 29.65 834 24.63 8.4 47.2 81 5.4 41.8
04:20 1004 29.65 834 24.63 8.2 46.8 81 5.3 41.5
04:25 1004 29.65 834 24.63 7.9 46.2 82 5.1 41.2
04:30 1005 29.68 834 24.63 7.7 45.9 80 4.5 40.1
04:35 1004 29.65 834 24.63 7.6 45.7 79 4.3 39.7
04:40 1004 29.65 833 24.6 7.6 45.6 78 3.9 39
04:45 1004 29.65 833 24.6 7.5 45.4 77 3.7 38.7
04:50 1004 29.65 833 24.6 7.4 45.4 74 3.2 37.7
04:55 1003 29.62 833 24.6 7.6 45.6 73 3.1 37.6
05:00 1003 29.62 833 24.6 7.7 45.9 73 3.1 37.6
05:05 1003 29.62 833 24.6 7.8 46 69 2.5 36.4
05:10 1003 29.62 832 24.57 8.1 46.5 68 2.5 36.5
05:15 1003 29.62 832 24.57 8.4 47 65 2.2 35.9
05:20 1003 29.62 832 24.57 8.5 47.4 66 2.5 36.6
05:25 1003 29.62 832 24.57 8.4 47.1 66 2.4 36.3
05:30 1003 29.62 832 24.57 8.4 47.1 66 2.4 36.4
05:35 1003 29.62 832 24.57 8.4 47.2 65 2.3 36.1
05:40 1003 29.62 833 24.6 8.5 47.4 65 2.3 36.1
05:45 1003 29.62 833 24.6 8.7 47.6 62 1.9 35.5
05:50 1004 29.65 833 24.6 8.7 47.7 63 2.1 35.9
05:55 1004 29.65 833 24.6 8.7 47.7 62 2 35.6
06:00 1004 29.65 833 24.6 8.7 47.7 64 2.3 36.1
06:05 1003 29.62 833 24.6 8.6 47.4 65 2.3 36.2
06:10 1004 29.65 833 24.6 8.5 47.2 66 2.5 36.4
06:15 1004 29.65 833 24.6 8.3 47 66 2.4 36.3
06:20 1004 29.65 833 24.6 8.5 47.2 62 1.6 34.9
06:25 1004 29.65 833 24.6 9.1 48.3 59 1.5 34.8
06:30 1004 29.65 833 24.6 9.3 48.8 58 1.5 34.8
06:35 1004 29.65 833 24.6 9.5 49 57 1.4 34.5
06:40 1004 29.65 833 24.6 9.5 49 57 1.5 34.7
06:45 1004 29.65 833 24.6 9.3 48.8 57 1.4 34.5
06:50 1004 29.65 833 24.6 9.3 48.7 57 1.3 34.3
06:55 1004 29.65 833 24.6 9.3 48.7 55 0.8 33.5
07:00 1004 29.65 833 24.6 9.4 48.8 56 1.1 34
07:05 1004 29.65 833 24.6 9.2 48.6 57 1.2 34.2
07:10 1004 29.65 833 24.6 9.1 48.4 58 1.2 34.2
07:15 1004 29.65 833 24.6 8.9 48.1 59 1.3 34.4
07:20 1004 29.65 833 24.6 8.8 47.9 60 1.5 34.6
07:25 1004 29.65 833 24.6 8.6 47.5 61 1.5 34.8
07:30 1004 29.65 833 24.6 8.5 47.3 59 0.9 33.7
07:35 1004 29.65 833 24.6 8.9 47.9 56 0.7 33.2
07:40 1004 29.65 833 24.6 9 48.3 58 1.2 34.1
07:45 1004 29.65 833 24.6 8.7 47.6 60 1.4 34.5
07:50 1004 29.65 833 24.6 8.6 47.5 57 0.7 33.2
07:55 1004 29.65 834 24.63 8.9 48 56 0.7 33.2
08:00 1004 29.65 834 24.63 8.9 48.1 54 0.2 32.3
08:05 1005 29.68 834 24.63 9.1 48.3 54 0.2 32.3
08:10 1005 29.68 834 24.63 9 48.2 55 0.4 32.7
08:15 1005 29.68 834 24.63 8.9 47.9 56 0.5 33
08:20 1005 29.68 834 24.63 8.6 47.5 57 0.5 32.9
08:25 1005 29.68 835 24.66 8.7 47.6 56 0.4 32.7
08:30 1006 29.71 835 24.66 8.8 47.8 53 -0.3 31.5
08:35 1006 29.71 835 24.66 9.1 48.3 48 -1.3 29.7
08:40 1006 29.71 835 24.66 9.4 48.8 44 -2.3 27.9
08:45 1006 29.71 835 24.66 9.4 48.9 45 -1.8 28.8
08:50 1006 29.71 835 24.66 9.4 48.8 45 -2 28.4
08:55 1006 29.71 835 24.66 9.6 49.3 44 -2 28.3
09:00 1006 29.71 835 24.66 9.9 49.9 43 -1.9 28.5
09:05 1006 29.71 835 24.66 9.9 49.7 44 -1.6 29.1
09:10 1006 29.71 835 24.66 10 49.9 43 -1.9 28.6
09:15 1006 29.71 835 24.66 10.1 50.2 41 -2.5 27.5
09:20 1006 29.71 835 24.66 10.3 50.6 40 -2.7 27.1
09:25 1006 29.71 835 24.66 10.4 50.6 39 -3 26.5
09:30 1006 29.71 835 24.66 10.3 50.6 37 -3.7 25.3
09:35 1005 29.68 835 24.66 10.4 50.7 37 -3.7 25.4
09:40 1006 29.71 835 24.66 10.5 50.8 37 -3.7 25.3
09:45 1006 29.71 835 24.66 10.5 51 36 -3.8 25.2
09:50 1006 29.71 835 24.66 10.6 51.1 37 -3.3 26
09:55 1006 29.71 836 24.69 10.8 51.4 35 -4 24.8
10:00 1006 29.71 836 24.69 11.1 51.9 35 -3.9 25
10:05 1007 29.74 836 24.69 11.1 52 34 -4 24.9
10:10 1007 29.74 836 24.69 10.9 51.7 34 -4.1 24.6
10:15 1007 29.74 836 24.69 10.9 51.5 36 -3.6 25.5
10:20 1007 29.74 836 24.69 11.2 52.1 35 -3.8 25.2
10:25 1007 29.74 836 24.69 11 51.7 33 -4.5 23.9
10:30 1007 29.74 836 24.69 10.7 51.3 34 -4.5 23.9
10:35 1007 29.74 836 24.69 10.6 51.1 35 -4.4 24.1
10:40 1007 29.74 836 24.69 10.6 51.1 34 -4.7 23.6
10:45 1007 29.74 836 24.69 10.6 51.1 34 -4.6 23.7
10:50 1007 29.74 836 24.69 10.6 51 34 -4.7 23.6
10:55 1007 29.74 836 24.69 10.8 51.5 33 -4.7 23.6
11:00 1007 29.74 837 24.72 11.3 52.3 31 -5.2 22.7
11:05 1007 29.74 837 24.72 11.5 52.6 31 -5 23
11:10 1008 29.77 837 24.72 11 51.8 33 -4.5 24
11:15 1008 29.77 837 24.72 10.8 51.4 33 -4.8 23.3
11:20 1008 29.77 837 24.72 10.7 51.2 33 -4.8 23.3
11:25 1008 29.77 837 24.72 10.6 51 33 -5.1 22.8
11:30 1008 29.77 837 24.72 10.5 51 34 -4.8 23.4
11:35 1008 29.77 837 24.72 10.5 50.9 34 -4.7 23.6
11:40 1008 29.77 837 24.72 10.5 50.8 34 -4.7 23.5
11:45 1008 29.77 837 24.72 10.4 50.7 43 -1.5 29.2
11:50 1008 29.77 837 24.72 9.6 49.3 47 -1.2 29.9
11:55 1008 29.77 837 24.72 9.3 48.8 49 -0.8 30.6
12:00 1008 29.77 837 24.72 9.7 49.5 46 -1.3 29.7
12:05 1008 29.77 837 24.72 10.2 50.4 46 -0.9 30.3
12:10 1008 29.77 837 24.72 10.4 50.6 45 -1.1 30
12:15 1008 29.77 837 24.72 10.3 50.5 45 -1 30.1
12:20 1008 29.77 837 24.72 10.5 50.8 43 -1.7 29
12:25 1008 29.77 837 24.72 10.9 51.6 42 -1.5 29.3
12:30 1008 29.77 837 24.72 10.5 50.9 39 -2.7 27.2
12:35 1008 29.77 837 24.72 10.5 50.9 41 -2 28.4
12:40 1008 29.77 837 24.72 10.5 50.9 42 -1.9 28.6
12:45 1008 29.77 837 24.72 10.4 50.7 43 -1.7 28.9
12:50 1008 29.77 837 24.72 10.4 50.8 41 -2.4 27.7
12:55 1008 29.77 837 24.72 11.1 51.9 40 -2.1 28.2
13:00 1008 29.77 837 24.72 11.6 52.9 39 -1.8 28.7
13:05 1008 29.77 837 24.72 11.6 52.8 32 -4.5 24
13:10 1008 29.77 837 24.72 12 53.5 29 -5.5 22.2
13:15 1008 29.77 837 24.72 12.6 54.7 27 -5.9 21.4
13:20 1008 29.77 837 24.72 12.5 54.4 28 -5.7 21.8
13:25 1008 29.77 837 24.72 12.8 55 27 -5.6 21.9
13:30 1008 29.77 837 24.72 13.5 56.3 27 -4.9 23.2
13:35 1008 29.77 837 24.72 13.1 55.6 28 -4.8 23.4
13:40 1008 29.77 837 24.72 12.1 53.7 29 -5.5 22.2
13:45 1008 29.77 837 24.72 12 53.7 28 -5.7 21.8
13:50 1008 29.77 837 24.72 12.4 54.3 28 -5.5 22.1
13:55 1008 29.77 837 24.72 12.9 55.3 27 -5.4 22.3
14:00 1008 29.77 837 24.72 13 55.5 25 -6.4 20.5
14:05 1008 29.77 837 24.72 13.5 56.3 24 -6.8 19.8
14:10 1008 29.77 837 24.72 13.7 56.6 24 -6.6 20.2
14:15 1008 29.77 837 24.72 13.5 56.3 25 -6.1 21.1
14:20 1008 29.77 837 24.72 13.3 56 36 -1.5 29.3
14:25 1008 29.77 837 24.72 12.5 54.6 37 -1.6 29
14:30 1007 29.74 837 24.72 12.3 54.2 37 -2 28.4
14:35 1008 29.77 837 24.72 12.5 54.5 36 -1.9 28.5
14:40 1007 29.74 837 24.72 12.3 54.2 37 -1.9 28.6
14:45 1007 29.74 837 24.72 12.8 55 35 -2.2 28
14:50 1007 29.74 836 24.69 12.9 55.1 35 -2.1 28.1
14:55 1007 29.74 836 24.69 12.4 54.4 37 -1.8 28.8
15:00 1007 29.74 836 24.69 12.5 54.6 36 -2.2 28.1
15:05 1007 29.74 836 24.69 13.2 55.7 31 -3.4 25.8
15:10 1007 29.74 836 24.69 13.5 56.2 30 -3.5 25.7
15:15 1007 29.74 836 24.69 13.9 56.9 23 -7.1 19.3
15:20 1007 29.74 836 24.69 14.4 57.9 21 -7.3 18.8
15:25 1007 29.74 836 24.69 14.6 58.2 20 -7.9 17.7
15:30 1007 29.74 836 24.69 14 57.2 22 -7.6 18.3
15:35 1007 29.74 836 24.69 14.1 57.3 22 -7.3 18.8
15:40 1007 29.74 836 24.69 14.2 57.6 21 -7.6 18.4
15:45 1007 29.74 836 24.69 14 57.1 22 -7.5 18.6
15:50 1007 29.74 836 24.69 14 57.2 22 -7.1 19.2
15:55 1007 29.74 836 24.69 14.1 57.4 22 -7.1 19.2
16:00 1007 29.74 836 24.69 14.1 57.4 23 -6.5 20.2
16:05 1007 29.74 836 24.69 14.4 57.9 23 -6.2 20.8
16:10 1007 29.74 836 24.69 14.3 57.7 23 -6.4 20.5
16:15 1007 29.74 836 24.69 14.1 57.4 23 -6.6 20.1
16:20 1007 29.74 836 24.69 13.8 56.9 23 -6.6 20.1
16:25 1007 29.74 836 24.69 13.9 57 23 -6.7 20
16:30 1007 29.74 836 24.69 13.8 56.8 23 -7 19.4
16:35 1007 29.74 836 24.69 13.7 56.6 24 -6.5 20.3
16:40 1007 29.74 836 24.69 13.5 56.2 22 -7.5 18.5
16:45 1007 29.74 836 24.69 13.3 56 24 -6.8 19.8
16:50 1007 29.74 836 24.69 13.1 55.5 24 -7.2 19.1
16:55 1007 29.74 836 24.69 13.5 56.3 24 -6.8 19.7
17:00 1007 29.74 836 24.69 13.8 56.8 23 -6.9 19.5
17:05 1007 29.74 836 24.69 13.7 56.7 23 -7.1 19.2
17:10 1006 29.71 836 24.69 13.6 56.5 23 -7.1 19.2
17:15 1006 29.71 836 24.69 13.6 56.5 23 -7.3 18.8
17:20 1006 29.71 835 24.66 13.4 56.1 23 -7.1 19.3
17:25 1006 29.71 835 24.66 13.1 55.6 24 -7 19.4
17:30 1006 29.71 835 24.66 13.1 55.6 24 -7 19.4
17:35 1006 29.71 835 24.66 13.1 55.6 24 -7.1 19.3
17:40 1006 29.71 835 24.66 13.1 55.5 24 -6.9 19.6
17:45 1006 29.71 835 24.66 13 55.4 25 -6.7 19.9
17:50 1006 29.71 835 24.66 13 55.4 24 -7.1 19.2
17:55 1006 29.71 835 24.66 13 55.5 24 -6.8 19.8
18:00 1006 29.71 835 24.66 12.9 55.3 25 -6.6 20.2
18:05 1006 29.71 835 24.66 12.8 55 25 -6.6 20.2
18:10 1006 29.71 835 24.66 12.6 54.7 25 -6.8 19.8
18:15 1006 29.71 835 24.66 12.3 54.1 26 -6.5 20.2
18:20 1006 29.71 835 24.66 12 53.6 26 -6.6 20
18:25 1006 29.71 835 24.66 12.1 53.7 27 -6.5 20.4
18:30 1006 29.71 835 24.66 11.9 53.4 27 -6.4 20.5
18:35 1006 29.71 835 24.66 11.5 52.8 28 -6.1 21
18:40 1006 29.71 835 24.66 11.3 52.3 29 -6.1 21.1
18:45 1006 29.71 835 24.66 11 51.8 29 -6.1 21
18:50 1006 29.71 835 24.66 10.8 51.4 31 -5.7 21.8
18:55 1006 29.71 835 24.66 10.3 50.6 33 -5.4 22.3
19:00 1006 29.71 835 24.66 10.2 50.4 32 -5.7 21.7
19:05 1006 29.71 835 24.66 10.1 50.2 33 -5.4 22.3
19:10 1006 29.71 835 24.66 10 49.9 34 -5.2 22.7
19:15 1006 29.71 835 24.66 9.6 49.4 37 -4.2 24.5
19:20 1006 29.71 835 24.66 9 48.1 39 -4.1 24.7
19:25 1006 29.71 835 24.66 8.8 47.8 37 -5.1 22.8
19:30 1006 29.71 835 24.66 9.1 48.3 36 -5.1 22.9
19:35 1006 29.71 835 24.66 8.9 47.9 40 -4 24.7
19:40 1006 29.71 836 24.69 8.5 47.2 40 -4.3 24.3
19:45 1006 29.71 835 24.66 8.2 46.8 40 -4.5 23.8
19:50 1006 29.71 835 24.66 8.2 46.8 41 -4.4 24.1
19:55 1006 29.71 835 24.66 8 46.3 42 -4.2 24.5
20:00 1006 29.71 835 24.66 7.7 45.9 44 -3.8 25.2
20:05 1006 29.71 835 24.66 7.5 45.5 44 -3.9 25
20:10 1006 29.71 835 24.66 7.8 46 45 -3.5 25.8
20:15 1006 29.71 835 24.66 7.8 46.1 43 -4 24.8
20:20 1006 29.71 835 24.66 8 46.3 43 -3.7 25.3
20:25 1006 29.71 835 24.66 8.4 47 38 -5.1 22.8
20:30 1006 29.71 835 24.66 9.3 48.7 39 -4.1 24.7
20:35 1005 29.68 835 24.66 9.4 48.8 38 -4.2 24.5
20:40 1005 29.68 835 24.66 9.5 49 37 -4.4 24
20:45 1005 29.68 835 24.66 9.5 49.1 39 -3.6 25.6
20:50 1005 29.68 835 24.66 9.2 48.6 40 -3.5 25.7
20:55 1005 29.68 835 24.66 8.7 47.7 43 -3.3 26.1
21:00 1005 29.68 834 24.63 8.2 46.8 41 -4.1 24.6
21:05 1005 29.68 834 24.63 8 46.4 45 -3.2 26.2
21:10 1005 29.68 834 24.63 7.6 45.6 44 -3.8 25.1
21:15 1005 29.68 834 24.63 7.8 46.1 44 -3.5 25.6
21:20 1005 29.68 834 24.63 7.7 45.9 42 -4.4 24.2
21:25 1005 29.68 834 24.63 7.9 46.3 40 -4.7 23.5
21:30 1005 29.68 834 24.63 8 46.4 42 -4.2 24.5
21:35 1005 29.68 834 24.63 7.9 46.1 43 -4.1 24.7
21:40 1005 29.68 834 24.63 7.8 46 42 -4.2 24.4
21:45 1004 29.65 834 24.63 8 46.4 41 -4.5 23.9
21:50 1004 29.65 833 24.6 8.6 47.6 39 -4.4 24.1
21:55 1004 29.65 833 24.6 8.8 47.8 40 -4.1 24.6
22:00 1004 29.65 833 24.6 8.4 47.1 41 -4.1 24.7
22:05 1004 29.65 833 24.6 8 46.3 43 -3.9 25.1
22:10 1004 29.65 833 24.6 7.9 46.1 43 -3.8 25.1
22:15 1004 29.65 833 24.6 7.8 46 44 -3.7 25.4
22:20 1004 29.65 833 24.6 7.8 46 44 -3.6 25.4
22:25 1004 29.65 833 24.6 8.1 46.6 41 -4.4 24.1
22:30 1004 29.65 833 24.6 8.8 47.9 42 -3.4 25.9
22:35 1004 29.65 833 24.6 8.6 47.5 41 -3.8 25.2
22:40 1003 29.62 833 24.6 8.6 47.5 42 -3.4 25.9
22:45 1003 29.62 833 24.6 8.3 46.9 43 -3.6 25.6
22:50 1003 29.62 832 24.57 8.6 47.6 41 -3.9 25
22:55 1003 29.62 832 24.57 9 48.2 41 -3.7 25.4
23:00 1003 29.62 832 24.57 8.9 48.1 41 -3.6 25.5
23:05 1003 29.62 832 24.57 9.2 48.5 40 -3.9 25.1
23:10 1003 29.62 832 24.57 8.8 47.8 43 -2.9 26.7
23:15 1003 29.62 832 24.57 8.3 46.9 44 -3.4 25.9
23:20 1003 29.62 833 24.6 8.2 46.8 44 -3.2 26.2
23:25 1003 29.62 833 24.6 8.3 46.9 44 -3.3 26
23:30 1003 29.62 833 24.6 8.4 47.1 41 -4.2 24.5
23:35 1003 29.62 833 24.6 8.9 48.1 38 -4.7 23.6
23:40 1003 29.62 832 24.57 9.1 48.4 38 -4.6 23.8
23:45 1003 29.62 832 24.57 9.1 48.3 38 -4.5 23.8
23:50 1003 29.62 832 24.57 8.9 48.1 38 -4.7 23.5
23:55 1003 29.62 832 24.57 8.5 47.3 43 -3.4 26
24:00 1003 29.62 832 24.57 8 46.4 44 -3.6 25.5